createdAt,value
2023-02-01T00:00:12.540Z,1007.97
2023-02-01T00:01:12.520Z,1007.95
2023-02-01T00:02:12.733Z,1008.01
2023-02-01T00:03:12.909Z,1008
2023-02-01T00:04:12.703Z,1007.98
2023-02-01T00:05:12.819Z,1008.01
2023-02-01T00:06:12.847Z,1007.99
2023-02-01T00:07:15.579Z,1008.01
2023-02-01T00:08:12.561Z,1008.02
2023-02-01T00:09:12.505Z,1008
2023-02-01T00:10:12.514Z,1008.03
2023-02-01T00:11:12.526Z,1008.02
2023-02-01T00:12:12.646Z,1008.07
2023-02-01T00:13:12.550Z,1008.07
2023-02-01T00:14:12.519Z,1008.02
2023-02-01T00:15:12.508Z,1008.06
2023-02-01T00:16:12.851Z,1008.06
2023-02-01T00:17:12.509Z,1008.08
2023-02-01T00:18:12.525Z,1008.07
2023-02-01T00:19:12.585Z,1008.02
2023-02-01T00:20:12.834Z,1007.96
2023-02-01T00:21:12.507Z,1007.94
2023-02-01T00:22:12.524Z,1007.9
2023-02-01T00:23:12.528Z,1007.9
2023-02-01T00:24:12.558Z,1007.82
2023-02-01T00:25:12.521Z,1007.77
2023-02-01T00:26:12.519Z,1007.79
2023-02-01T00:27:12.523Z,1007.76
2023-02-01T00:28:12.544Z,1007.79
2023-02-01T00:29:12.529Z,1007.75
2023-02-01T00:30:12.518Z,1007.77
2023-02-01T00:31:12.609Z,1007.71
2023-02-01T00:32:12.514Z,1007.71
2023-02-01T00:33:12.530Z,1007.73
2023-02-01T00:34:12.517Z,1007.74
2023-02-01T00:35:12.516Z,1007.78
2023-02-01T00:36:12.534Z,1007.79
2023-02-01T00:37:12.585Z,1007.77
2023-02-01T00:38:12.513Z,1007.76
2023-02-01T00:39:12.510Z,1007.71
2023-02-01T00:40:12.509Z,1007.7
2023-02-01T00:41:12.506Z,1007.75
2023-02-01T00:42:12.542Z,1007.75
2023-02-01T00:43:12.517Z,1007.77
2023-02-01T00:44:12.514Z,1007.7
2023-02-01T00:45:12.525Z,1007.75
2023-02-01T00:46:12.519Z,1007.74
2023-02-01T00:47:12.528Z,1007.7
2023-02-01T00:48:12.627Z,1007.68
2023-02-01T00:49:12.523Z,1007.67
2023-02-01T00:50:12.513Z,1007.6
2023-02-01T00:51:12.526Z,1007.58
2023-02-01T00:52:12.526Z,1007.58
2023-02-01T00:53:12.509Z,1007.58
2023-02-01T00:54:12.518Z,1007.63
2023-02-01T00:55:12.531Z,1007.64
2023-02-01T00:56:12.527Z,1007.65
2023-02-01T00:57:12.512Z,1007.65
2023-02-01T00:58:12.514Z,1007.63
2023-02-01T00:59:12.518Z,1007.66
2023-02-01T01:00:12.544Z,1007.66
2023-02-01T01:01:12.541Z,1007.64
2023-02-01T01:02:12.599Z,1007.63
2023-02-01T01:03:12.526Z,1007.72
2023-02-01T01:04:12.537Z,1007.65
2023-02-01T01:05:12.540Z,1007.63
2023-02-01T01:06:12.513Z,1007.65
2023-02-01T01:07:12.510Z,1007.71
2023-02-01T01:08:12.510Z,1007.7
2023-02-01T01:09:12.521Z,1007.72
2023-02-01T01:10:12.512Z,1007.77
2023-02-01T01:11:12.506Z,1007.65
2023-02-01T01:12:12.502Z,1007.7
2023-02-01T01:13:12.510Z,1007.73
2023-02-01T01:14:12.520Z,1007.68
2023-02-01T01:15:12.528Z,1007.65
2023-02-01T01:16:12.523Z,1007.69
2023-02-01T01:17:12.520Z,1007.64
2023-02-01T01:18:12.508Z,1007.7
2023-02-01T01:19:12.733Z,1007.64
2023-02-01T01:20:12.508Z,1007.73
2023-02-01T01:21:12.506Z,1007.78
2023-02-01T01:22:12.504Z,1007.75
2023-02-01T01:23:12.618Z,1007.76
2023-02-01T01:24:13.005Z,1007.69
2023-02-01T01:25:13.222Z,1007.71
2023-02-01T01:26:13.556Z,1007.69
2023-02-01T01:27:12.032Z,1007.65
2023-02-01T01:28:12.312Z,1007.65
2023-02-01T01:29:12.608Z,1007.59
2023-02-01T01:30:12.876Z,1007.61
2023-02-01T01:31:13.337Z,1007.66
2023-02-01T01:32:12.520Z,1007.63
2023-02-01T01:33:12.803Z,1007.65
2023-02-01T01:34:12.273Z,1007.66
2023-02-01T01:35:12.467Z,1007.63
2023-02-01T01:36:12.759Z,1007.68
2023-02-01T01:37:12.930Z,1007.65
2023-02-01T01:38:12.558Z,1007.6
2023-02-01T01:39:12.781Z,1007.62
2023-02-01T01:40:12.541Z,1007.58
2023-02-01T01:41:12.506Z,1007.56
2023-02-01T01:42:12.507Z,1007.53
2023-02-01T01:43:12.510Z,1007.51
2023-02-01T01:44:12.520Z,1007.43
2023-02-01T01:45:12.589Z,1007.44
2023-02-01T01:46:12.537Z,1007.45
2023-02-01T01:47:12.508Z,1007.49
2023-02-01T01:48:12.523Z,1007.59
2023-02-01T01:49:12.528Z,1007.62
2023-02-01T01:50:12.569Z,1007.58
2023-02-01T01:51:12.512Z,1007.59
2023-02-01T01:52:12.506Z,1007.54
2023-02-01T01:53:12.513Z,1007.54
2023-02-01T01:54:12.515Z,1007.56
2023-02-01T01:55:12.547Z,1007.56
2023-02-01T01:56:12.507Z,1007.55
2023-02-01T01:57:12.508Z,1007.57
2023-02-01T01:58:12.519Z,1007.52
2023-02-01T01:59:12.510Z,1007.43
2023-02-01T02:00:12.523Z,1007.5
2023-02-01T02:01:12.583Z,1007.42
2023-02-01T02:02:12.537Z,1007.44
2023-02-01T02:03:12.505Z,1007.42
2023-02-01T02:04:12.572Z,1007.34
2023-02-01T02:05:12.675Z,1007.38
2023-02-01T02:06:12.634Z,1007.38
2023-02-01T02:08:55.528Z,1007.25
2023-02-01T02:09:12.513Z,1007.25
2023-02-01T02:10:12.501Z,1007.17
2023-02-01T02:11:12.855Z,1007.15
2023-02-01T02:12:12.502Z,1007.17
2023-02-01T02:13:12.550Z,1007.2
2023-02-01T02:14:12.606Z,1007.18
2023-02-01T02:15:12.511Z,1007.15
2023-02-01T02:16:12.544Z,1007.16
2023-02-01T02:17:12.505Z,1007.23
2023-02-01T02:18:12.505Z,1007.14
2023-02-01T02:19:12.513Z,1007.16
2023-02-01T02:20:12.500Z,1007.11
2023-02-01T02:21:12.504Z,1007.17
2023-02-01T02:22:12.510Z,1007.18
2023-02-01T02:23:12.556Z,1007.18
2023-02-01T02:24:12.520Z,1007.13
2023-02-01T02:25:12.706Z,1007.18
2023-02-01T02:26:12.600Z,1007.16
2023-02-01T02:27:12.851Z,1007.12
2023-02-01T02:28:12.508Z,1007.06
2023-02-01T02:29:12.671Z,1007.08
2023-02-01T02:30:12.519Z,1007.01
2023-02-01T02:31:12.506Z,1007
2023-02-01T02:32:12.533Z,1007.01
2023-02-01T02:33:12.519Z,1007.02
2023-02-01T02:34:12.509Z,1006.97
2023-02-01T02:35:12.519Z,1007.04
2023-02-01T02:36:12.506Z,1006.97
2023-02-01T02:37:12.592Z,1006.99
2023-02-01T02:38:12.507Z,1006.91
2023-02-01T02:39:12.613Z,1006.93
2023-02-01T02:40:12.513Z,1006.89
2023-02-01T02:41:12.520Z,1006.86
2023-02-01T02:42:12.499Z,1006.89
2023-02-01T02:43:12.502Z,1006.87
2023-02-01T02:44:12.512Z,1006.9
2023-02-01T02:45:12.636Z,1006.91
2023-02-01T02:46:12.523Z,1006.9
2023-02-01T02:47:12.502Z,1006.88
2023-02-01T02:48:12.510Z,1006.91
2023-02-01T02:49:12.745Z,1006.9
2023-02-01T02:50:12.499Z,1006.82
2023-02-01T02:51:12.503Z,1006.9
2023-02-01T02:52:12.575Z,1006.92
2023-02-01T02:53:12.779Z,1006.91
2023-02-01T02:54:12.711Z,1006.91
2023-02-01T02:55:12.513Z,1006.94
2023-02-01T02:56:12.692Z,1006.94
2023-02-01T02:57:12.567Z,1006.94
2023-02-01T02:58:12.507Z,1006.89
2023-02-01T02:59:13.203Z,1006.88
2023-02-01T03:00:13.318Z,1006.83
2023-02-01T03:07:29.280Z,1006.8
2023-02-01T03:07:37.461Z,1006.8
2023-02-01T03:09:12.531Z,1006.7
2023-02-01T03:10:12.516Z,1006.72
2023-02-01T03:11:12.519Z,1006.69
2023-02-01T03:12:12.527Z,1006.7
2023-02-01T03:13:12.519Z,1006.65
2023-02-01T03:14:12.512Z,1006.65
2023-02-01T03:15:12.508Z,1006.53
2023-02-01T03:16:12.522Z,1006.52
2023-02-01T03:17:12.508Z,1006.5
2023-02-01T03:18:12.507Z,1006.55
2023-02-01T03:19:12.519Z,1006.45
2023-02-01T03:20:12.514Z,1006.53
2023-02-01T03:21:12.508Z,1006.5
2023-02-01T03:22:12.511Z,1006.55
2023-02-01T03:23:12.519Z,1006.48
2023-02-01T03:24:12.517Z,1006.48
2023-02-01T03:25:12.506Z,1006.53
2023-02-01T03:26:12.510Z,1006.42
2023-02-01T03:27:12.510Z,1006.41
2023-02-01T03:28:12.507Z,1006.3
2023-02-01T03:29:12.517Z,1006.35
2023-02-01T03:30:12.550Z,1006.37
2023-02-01T03:31:12.556Z,1006.3
2023-02-01T03:32:12.507Z,1006.34
2023-02-01T03:33:12.532Z,1006.34
2023-02-01T03:34:12.604Z,1006.29
2023-02-01T03:35:12.516Z,1006.28
2023-02-01T03:36:12.518Z,1006.25
2023-02-01T03:37:12.511Z,1006.24
2023-02-01T03:38:12.517Z,1006.2
2023-02-01T03:39:12.508Z,1006.24
2023-02-01T03:40:12.547Z,1006.16
2023-02-01T03:41:12.522Z,1006.26
2023-02-01T03:42:12.510Z,1006.22
2023-02-01T03:43:12.516Z,1006.22
2023-02-01T03:44:12.621Z,1006.15
2023-02-01T03:45:12.524Z,1006.19
2023-02-01T03:46:12.506Z,1006.19
2023-02-01T03:47:12.586Z,1006.23
2023-02-01T03:48:12.511Z,1006.19
2023-02-01T03:49:12.527Z,1006.19
2023-02-01T03:50:12.506Z,1006.2
2023-02-01T03:51:12.524Z,1006.21
2023-02-01T03:52:12.614Z,1006.2
2023-02-01T03:53:12.509Z,1006.28
2023-02-01T03:54:12.507Z,1006.28
2023-02-01T03:55:12.523Z,1006.33
2023-02-01T03:56:12.515Z,1006.29
2023-02-01T03:57:12.534Z,1006.28
2023-02-01T03:58:12.544Z,1006.29
2023-02-01T03:59:12.575Z,1006.21
2023-02-01T04:00:12.506Z,1006.27
2023-02-01T04:01:12.546Z,1006.25
2023-02-01T04:02:12.554Z,1006.26
2023-02-01T04:03:12.507Z,1006.18
2023-02-01T04:04:12.512Z,1006.28
2023-02-01T04:05:12.545Z,1006.18
2023-02-01T04:06:12.539Z,1006.19
2023-02-01T04:07:12.514Z,1006.21
2023-02-01T04:08:12.513Z,1006.24
2023-02-01T04:09:12.511Z,1006.17
2023-02-01T04:10:12.650Z,1006.17
2023-02-01T04:11:12.508Z,1006.13
2023-02-01T04:12:12.508Z,1006.16
2023-02-01T04:13:12.565Z,1006.09
2023-02-01T04:14:12.517Z,1006.11
2023-02-01T04:15:12.527Z,1006.13
2023-02-01T04:16:12.585Z,1006.17
2023-02-01T04:17:12.531Z,1006.22
2023-02-01T04:18:12.516Z,1006.18
2023-02-01T04:19:12.507Z,1006.14
2023-02-01T04:20:12.542Z,1006.2
2023-02-01T04:21:12.513Z,1006.17
2023-02-01T04:22:12.514Z,1006.15
2023-02-01T04:23:12.523Z,1006.17
2023-02-01T04:24:12.508Z,1006.17
2023-02-01T04:25:12.509Z,1006.13
2023-02-01T04:26:12.542Z,1006.19
2023-02-01T04:27:12.528Z,1006.22
2023-02-01T04:28:12.523Z,1006.18
2023-02-01T04:29:12.545Z,1006.17
2023-02-01T04:30:12.515Z,1006.19
2023-02-01T04:31:12.672Z,1006.12
2023-02-01T04:32:12.591Z,1006.11
2023-02-01T04:33:12.504Z,1006.11
2023-02-01T04:34:12.506Z,1006.01
2023-02-01T04:35:12.515Z,1005.98
2023-02-01T04:36:12.541Z,1005.95
2023-02-01T04:37:12.514Z,1005.97
2023-02-01T04:38:12.509Z,1005.94
2023-02-01T04:39:12.527Z,1006.01
2023-02-01T04:40:12.537Z,1005.92
2023-02-01T04:41:12.529Z,1005.88
2023-02-01T04:42:12.523Z,1005.9
2023-02-01T04:43:12.528Z,1005.82
2023-02-01T04:44:12.526Z,1005.91
2023-02-01T04:45:12.532Z,1005.92
2023-02-01T04:46:12.537Z,1005.91
2023-02-01T04:47:12.504Z,1005.83
2023-02-01T04:48:12.728Z,1005.76
2023-02-01T04:49:12.559Z,1005.77
2023-02-01T04:50:12.632Z,1005.81
2023-02-01T04:51:12.511Z,1005.82
2023-02-01T04:52:12.517Z,1005.75
2023-02-01T04:53:12.531Z,1005.82
2023-02-01T04:54:12.597Z,1005.82
2023-02-01T04:55:12.511Z,1005.82
2023-02-01T04:56:12.515Z,1005.71
2023-02-01T04:57:12.531Z,1005.69
2023-02-01T04:58:12.559Z,1005.74
2023-02-01T04:59:12.532Z,1005.78
2023-02-01T05:00:14.484Z,1005.8
2023-02-01T05:01:13.944Z,1005.75
2023-02-01T05:02:13.747Z,1005.87
2023-02-01T05:03:13.253Z,1005.78
2023-02-01T05:04:13.860Z,1005.79
2023-02-01T05:05:13.917Z,1005.78
2023-02-01T05:06:14.122Z,1005.77
2023-02-01T05:07:12.736Z,1005.81
2023-02-01T05:08:12.627Z,1005.74
2023-02-01T05:09:12.506Z,1005.72
2023-02-01T05:10:12.681Z,1005.78
2023-02-01T05:11:12.511Z,1005.81
2023-02-01T05:12:12.554Z,1005.86
2023-02-01T05:13:12.537Z,1005.77
2023-02-01T05:14:12.617Z,1005.79
2023-02-01T05:15:12.666Z,1005.86
2023-02-01T05:16:12.557Z,1005.86
2023-02-01T05:17:12.521Z,1005.87
2023-02-01T05:18:12.599Z,1005.83
2023-02-01T05:19:12.609Z,1005.82
2023-02-01T05:20:12.527Z,1005.79
2023-02-01T05:21:12.530Z,1005.79
2023-02-01T05:22:12.520Z,1005.76
2023-02-01T05:23:12.554Z,1005.83
2023-02-01T05:24:12.600Z,1005.83
2023-02-01T05:25:12.599Z,1005.78
2023-02-01T05:26:12.523Z,1005.83
2023-02-01T05:27:12.567Z,1005.89
2023-02-01T05:28:12.693Z,1005.79
2023-02-01T05:29:12.594Z,1005.84
2023-02-01T05:30:12.507Z,1005.85
2023-02-01T05:31:12.669Z,1005.92
2023-02-01T05:32:23.076Z,1005.89
2023-02-01T05:33:12.592Z,1005.85
2023-02-01T05:34:12.716Z,1005.86
2023-02-01T05:35:12.613Z,1005.91
2023-02-01T05:36:12.611Z,1005.74
2023-02-01T05:37:12.514Z,1005.78
2023-02-01T05:38:12.643Z,1005.85
2023-02-01T05:39:12.661Z,1005.76
2023-02-01T05:40:12.522Z,1005.77
2023-02-01T05:41:12.585Z,1005.78
2023-02-01T05:42:12.836Z,1005.75
2023-02-01T05:43:12.519Z,1005.81
2023-02-01T05:44:12.653Z,1005.83
2023-02-01T05:45:12.679Z,1005.76
2023-02-01T05:46:12.524Z,1005.8
2023-02-01T05:47:12.515Z,1005.9
2023-02-01T05:48:12.725Z,1005.85
2023-02-01T05:49:12.763Z,1005.82
2023-02-01T05:50:12.503Z,1005.76
2023-02-01T05:51:12.698Z,1005.76
2023-02-01T05:52:12.904Z,1005.84
2023-02-01T05:53:12.877Z,1005.78
2023-02-01T05:54:12.562Z,1005.82
2023-02-01T05:55:12.660Z,1005.8
2023-02-01T05:56:12.619Z,1005.83
2023-02-01T05:57:12.794Z,1005.78
2023-02-01T05:58:12.661Z,1005.75
2023-02-01T05:59:12.660Z,1005.67
2023-02-01T06:00:12.971Z,1005.71
2023-02-01T06:01:12.689Z,1005.7
2023-02-01T06:02:12.786Z,1005.64
2023-02-01T06:03:12.818Z,1005.61
2023-02-01T06:04:13.105Z,1005.51
2023-02-01T06:05:12.649Z,1005.57
2023-02-01T06:06:12.860Z,1005.61
2023-02-01T06:07:12.626Z,1005.57
2023-02-01T06:08:12.506Z,1005.72
2023-02-01T06:09:12.511Z,1005.74
2023-02-01T06:10:12.655Z,1005.71
2023-02-01T06:11:32.065Z,1005.7
2023-02-01T06:12:12.522Z,1005.66
2023-02-01T06:13:12.586Z,1005.62
2023-02-01T06:14:12.575Z,1005.45
2023-02-01T06:15:12.676Z,1005.59
2023-02-01T06:16:12.926Z,1005.56
2023-02-01T06:17:12.511Z,1005.58
2023-02-01T06:18:12.556Z,1005.61
2023-02-01T06:19:12.624Z,1005.65
2023-02-01T06:20:15.591Z,1005.69
2023-02-01T06:21:12.516Z,1005.7
2023-02-01T06:22:12.698Z,1005.72
2023-02-01T06:23:12.687Z,1005.73
2023-02-01T06:24:12.621Z,1005.66
2023-02-01T06:25:12.768Z,1005.68
2023-02-01T06:26:12.600Z,1005.63
2023-02-01T06:27:12.662Z,1005.61
2023-02-01T06:28:12.607Z,1005.58
2023-02-01T06:29:12.526Z,1005.61
2023-02-01T06:30:12.764Z,1005.69
2023-02-01T06:31:12.706Z,1005.77
2023-02-01T06:32:12.636Z,1005.82
2023-02-01T06:33:12.740Z,1005.85
2023-02-01T06:34:12.692Z,1005.79
2023-02-01T06:35:12.707Z,1005.78
2023-02-01T06:36:12.620Z,1005.78
2023-02-01T06:37:12.674Z,1005.81
2023-02-01T06:38:12.816Z,1005.81
2023-02-01T06:39:12.733Z,1005.82
2023-02-01T06:40:12.779Z,1005.73
2023-02-01T06:41:12.701Z,1005.74
2023-02-01T06:42:12.656Z,1005.75
2023-02-01T06:43:12.766Z,1005.76
2023-02-01T06:44:12.758Z,1005.73
2023-02-01T06:45:12.636Z,1005.74
2023-02-01T06:46:12.836Z,1005.64
2023-02-01T06:47:12.843Z,1005.66
2023-02-01T06:48:12.755Z,1005.7
2023-02-01T06:49:12.663Z,1005.72
2023-02-01T06:50:12.548Z,1005.73
2023-02-01T06:51:12.737Z,1005.77
2023-02-01T06:52:12.727Z,1005.77
2023-02-01T06:53:12.610Z,1005.82
2023-02-01T06:54:12.746Z,1005.87
2023-02-01T06:55:12.731Z,1005.86
2023-02-01T06:56:12.894Z,1005.89
2023-02-01T06:57:12.677Z,1005.97
2023-02-01T06:58:12.706Z,1006.1
2023-02-01T06:59:12.721Z,1006.01
2023-02-01T07:00:12.753Z,1005.97
2023-02-01T07:01:12.750Z,1006.09
2023-02-01T07:02:12.855Z,1006.06
2023-02-01T07:03:12.821Z,1006.1
2023-02-01T07:04:12.743Z,1006.1
2023-02-01T07:05:12.739Z,1006.12
2023-02-01T07:06:12.690Z,1006.13
2023-02-01T07:07:12.721Z,1006.11
2023-02-01T07:08:12.929Z,1006.17
2023-02-01T07:09:12.729Z,1006.24
2023-02-01T07:10:12.796Z,1006.3
2023-02-01T07:11:12.862Z,1006.29
2023-02-01T07:12:12.756Z,1006.26
2023-02-01T07:13:12.651Z,1006.27
2023-02-01T07:14:12.792Z,1006.3
2023-02-01T07:15:12.860Z,1006.25
2023-02-01T07:16:12.802Z,1006.25
2023-02-01T07:17:12.688Z,1006.32
2023-02-01T07:18:12.693Z,1006.22
2023-02-01T07:19:12.749Z,1006.19
2023-02-01T07:20:12.895Z,1006.24
2023-02-01T07:21:12.783Z,1006.25
2023-02-01T07:22:12.718Z,1006.22
2023-02-01T07:23:12.750Z,1006.34
2023-02-01T07:24:12.915Z,1006.26
2023-02-01T07:25:12.776Z,1006.33
2023-02-01T07:26:12.802Z,1006.27
2023-02-01T07:27:13.020Z,1006.3
2023-02-01T07:28:12.961Z,1006.35
2023-02-01T07:29:12.812Z,1006.42
2023-02-01T07:30:13.060Z,1006.4
2023-02-01T07:31:13.137Z,1006.51
2023-02-01T07:32:12.773Z,1006.41
2023-02-01T07:33:12.888Z,1006.44
2023-02-01T07:34:12.915Z,1006.48
2023-02-01T07:35:13.241Z,1006.47
2023-02-01T07:36:13.156Z,1006.47
2023-02-01T07:37:13.038Z,1006.5
2023-02-01T07:38:12.980Z,1006.52
2023-02-01T07:39:12.870Z,1006.58
2023-02-01T07:40:13.068Z,1006.62
2023-02-01T07:41:12.873Z,1006.54
2023-02-01T07:42:13.074Z,1006.61
2023-02-01T07:43:12.896Z,1006.58
2023-02-01T07:44:13.120Z,1006.55
2023-02-01T07:45:21.936Z,1006.58
2023-02-01T07:46:12.734Z,1006.61
2023-02-01T07:47:12.722Z,1006.57
2023-02-01T07:48:12.782Z,1006.59
2023-02-01T07:49:12.704Z,1006.59
2023-02-01T07:50:12.835Z,1006.58
2023-02-01T07:51:12.898Z,1006.53
2023-02-01T07:52:12.772Z,1006.58
2023-02-01T07:53:12.784Z,1006.53
2023-02-01T07:54:12.766Z,1006.54
2023-02-01T07:55:12.860Z,1006.52
2023-02-01T07:56:12.930Z,1006.57
2023-02-01T07:57:12.523Z,1006.63
2023-02-01T07:58:12.728Z,1006.6
2023-02-01T07:59:12.817Z,1006.58
2023-02-01T08:00:12.960Z,1006.55
2023-02-01T08:01:12.740Z,1006.56
2023-02-01T08:02:12.800Z,1006.45
2023-02-01T08:03:12.817Z,1006.65
2023-02-01T08:04:12.780Z,1006.54
2023-02-01T08:05:12.673Z,1006.52
2023-02-01T08:06:12.799Z,1006.52
2023-02-01T08:07:12.838Z,1006.56
2023-02-01T08:08:12.844Z,1006.63
2023-02-01T08:09:12.516Z,1006.61
2023-02-01T08:10:12.567Z,1006.51
2023-02-01T08:11:12.537Z,1006.54
2023-02-01T08:12:12.788Z,1006.56
2023-02-01T08:13:12.736Z,1006.56
2023-02-01T08:14:12.806Z,1006.52
2023-02-01T08:15:12.519Z,1006.5
2023-02-01T08:16:12.853Z,1006.58
2023-02-01T08:17:12.528Z,1006.55
2023-02-01T08:18:12.837Z,1006.56
2023-02-01T08:19:12.840Z,1006.62
2023-02-01T08:20:12.514Z,1006.7
2023-02-01T08:21:12.889Z,1006.76
2023-02-01T08:22:12.849Z,1006.78
2023-02-01T08:23:12.503Z,1006.71
2023-02-01T08:24:12.517Z,1006.73
2023-02-01T08:25:12.531Z,1006.78
2023-02-01T08:26:12.897Z,1006.78
2023-02-01T08:27:12.521Z,1006.76
2023-02-01T08:28:12.899Z,1006.85
2023-02-01T08:29:12.869Z,1006.78
2023-02-01T08:30:12.546Z,1006.86
2023-02-01T08:31:12.953Z,1006.73
2023-02-01T08:32:12.619Z,1006.68
2023-02-01T08:33:12.506Z,1006.74
2023-02-01T08:34:12.853Z,1006.7
2023-02-01T08:35:12.514Z,1006.79
2023-02-01T08:36:12.517Z,1006.75
2023-02-01T08:37:12.517Z,1006.73
2023-02-01T08:38:12.512Z,1006.8
2023-02-01T08:39:12.525Z,1006.75
2023-02-01T08:40:12.861Z,1006.77
2023-02-01T08:41:12.540Z,1006.86
2023-02-01T08:42:12.815Z,1006.89
2023-02-01T08:43:12.852Z,1006.86
2023-02-01T08:44:12.996Z,1006.79
2023-02-01T08:45:12.616Z,1006.9
2023-02-01T08:46:12.580Z,1006.86
2023-02-01T08:47:12.523Z,1006.86
2023-02-01T08:48:12.520Z,1006.76
2023-02-01T08:49:12.525Z,1006.86
2023-02-01T08:50:12.514Z,1006.9
2023-02-01T08:51:12.558Z,1006.86
2023-02-01T08:52:18.512Z,1006.91
2023-02-01T08:53:12.522Z,1006.88
2023-02-01T08:54:12.535Z,1006.95
2023-02-01T08:55:12.516Z,1006.79
2023-02-01T08:56:12.841Z,1006.86
2023-02-01T08:57:12.517Z,1006.86
2023-02-01T08:58:12.554Z,1006.81
2023-02-01T08:59:12.610Z,1006.76
2023-02-01T09:00:12.811Z,1006.85
2023-02-01T09:01:12.912Z,1006.84
2023-02-01T09:02:12.591Z,1006.94
2023-02-01T09:03:12.968Z,1006.88
2023-02-01T09:04:12.602Z,1006.88
2023-02-01T09:05:12.617Z,1006.83
2023-02-01T09:06:12.893Z,1006.81
2023-02-01T09:07:12.609Z,1006.77
2023-02-01T09:08:12.885Z,1006.8
2023-02-01T09:09:12.591Z,1006.79
2023-02-01T09:10:13.096Z,1006.75
2023-02-01T09:11:12.648Z,1006.7
2023-02-01T09:12:12.619Z,1006.71
2023-02-01T09:13:12.586Z,1006.78
2023-02-01T09:14:13.004Z,1006.77
2023-02-01T09:15:12.970Z,1006.77
2023-02-01T09:16:13.003Z,1006.72
2023-02-01T09:17:12.912Z,1006.7
2023-02-01T09:18:12.115Z,1006.67
2023-02-01T09:19:26.209Z,1006.7
2023-02-01T09:20:12.920Z,1006.72
2023-02-01T09:21:13.020Z,1006.7
2023-02-01T09:22:12.294Z,1006.71
2023-02-01T09:23:12.828Z,1006.69
2023-02-01T09:24:12.899Z,1006.75
2023-02-01T09:25:12.972Z,1006.73
2023-02-01T09:26:19.708Z,1006.74
2023-02-01T09:27:13.387Z,1006.72
2023-02-01T09:28:13.069Z,1006.67
2023-02-01T09:29:14.108Z,1006.71
2023-02-01T09:30:12.513Z,1006.64
2023-02-01T09:31:13.093Z,1006.67
2023-02-01T09:32:12.666Z,1006.59
2023-02-01T09:33:12.941Z,1006.65
2023-02-01T09:34:12.524Z,1006.65
2023-02-01T09:35:12.915Z,1006.59
2023-02-01T09:36:12.576Z,1006.6
2023-02-01T09:37:12.794Z,1006.59
2023-02-01T09:38:12.598Z,1006.56
2023-02-01T09:39:12.796Z,1006.57
2023-02-01T09:40:12.656Z,1006.6
2023-02-01T09:41:12.535Z,1006.56
2023-02-01T09:42:13.154Z,1006.54
2023-02-01T09:43:12.508Z,1006.52
2023-02-01T09:44:12.526Z,1006.51
2023-02-01T09:45:12.537Z,1006.48
2023-02-01T09:46:12.566Z,1006.47
2023-02-01T09:47:12.518Z,1006.49
2023-02-01T09:48:12.521Z,1006.46
2023-02-01T09:49:12.505Z,1006.47
2023-02-01T09:50:12.508Z,1006.47
2023-02-01T09:51:12.530Z,1006.42
2023-02-01T09:52:12.504Z,1006.48
2023-02-01T09:53:12.553Z,1006.46
2023-02-01T09:54:12.511Z,1006.45
2023-02-01T09:55:12.543Z,1006.51
2023-02-01T09:56:12.526Z,1006.5
2023-02-01T09:57:12.510Z,1006.51
2023-02-01T09:58:12.513Z,1006.52
2023-02-01T09:59:12.514Z,1006.5
2023-02-01T10:00:12.508Z,1006.53
2023-02-01T10:01:12.544Z,1006.52
2023-02-01T10:02:12.523Z,1006.47
2023-02-01T10:03:12.569Z,1006.46
2023-02-01T10:04:12.512Z,1006.5
2023-02-01T10:05:12.631Z,1006.5
2023-02-01T10:06:12.524Z,1006.53
2023-02-01T10:07:12.528Z,1006.49
2023-02-01T10:08:12.567Z,1006.44
2023-02-01T10:09:12.605Z,1006.49
2023-02-01T10:10:12.541Z,1006.46
2023-02-01T10:11:12.514Z,1006.44
2023-02-01T10:12:12.505Z,1006.33
2023-02-01T10:13:12.513Z,1006.42
2023-02-01T10:14:12.510Z,1006.38
2023-02-01T10:15:12.551Z,1006.38
2023-02-01T10:16:12.591Z,1006.39
2023-02-01T10:17:12.514Z,1006.38
2023-02-01T10:18:12.562Z,1006.32
2023-02-01T10:19:12.504Z,1006.44
2023-02-01T10:20:12.560Z,1006.27
2023-02-01T10:21:12.525Z,1006.28
2023-02-01T10:22:12.512Z,1006.35
2023-02-01T10:23:33.195Z,1006.22
2023-02-01T10:24:19.535Z,1006.23
2023-02-01T10:25:12.544Z,1006.34
2023-02-01T10:26:12.511Z,1006.29
2023-02-01T10:27:12.520Z,1006.3
2023-02-01T10:28:12.516Z,1006.23
2023-02-01T10:29:12.513Z,1006.28
2023-02-01T10:30:12.536Z,1006.3
2023-02-01T10:31:12.577Z,1006.23
2023-02-01T10:32:12.522Z,1006.31
2023-02-01T10:33:12.506Z,1006.41
2023-02-01T10:34:12.509Z,1006.27
2023-02-01T10:35:12.558Z,1006.32
2023-02-01T10:36:12.508Z,1006.41
2023-02-01T10:37:12.500Z,1006.47
2023-02-01T10:38:12.507Z,1006.46
2023-02-01T10:39:12.518Z,1006.4
2023-02-01T10:40:12.530Z,1006.38
2023-02-01T10:41:12.508Z,1006.41
2023-02-01T10:42:15.537Z,1006.34
2023-02-01T10:43:12.515Z,1006.33
2023-02-01T10:44:12.515Z,1006.37
2023-02-01T10:45:12.524Z,1006.31
2023-02-01T10:46:12.554Z,1006.3
2023-02-01T10:47:12.518Z,1006.3
2023-02-01T10:48:12.513Z,1006.3
2023-02-01T10:49:12.527Z,1006.24
2023-02-01T10:50:12.608Z,1006.23
2023-02-01T10:51:12.523Z,1006.22
2023-02-01T10:52:12.539Z,1006.25
2023-02-01T10:53:12.514Z,1006.21
2023-02-01T10:54:12.659Z,1006.19
2023-02-01T10:55:12.545Z,1006.09
2023-02-01T10:56:12.646Z,1006.11
2023-02-01T10:57:13.162Z,1006.24
2023-02-01T10:58:13.051Z,1006.2
2023-02-01T10:59:12.648Z,1006.27
2023-02-01T11:00:12.770Z,1006.21
2023-02-01T11:01:13.673Z,1006.21
2023-02-01T11:02:13.033Z,1006.26
2023-02-01T11:03:12.864Z,1006.09
2023-02-01T11:04:13.273Z,1006.15
2023-02-01T11:05:12.633Z,1006.25
2023-02-01T11:06:12.808Z,1006.28
2023-02-01T11:07:13.027Z,1006.23
2023-02-01T11:08:12.511Z,1006.24
2023-02-01T11:09:12.730Z,1006.27
2023-02-01T11:10:12.577Z,1006.24
2023-02-01T11:11:13.269Z,1006.24
2023-02-01T11:12:12.566Z,1006.26
2023-02-01T11:13:12.526Z,1006.31
2023-02-01T11:14:12.694Z,1006.33
2023-02-01T11:15:12.550Z,1006.34
2023-02-01T11:16:12.746Z,1006.28
2023-02-01T11:17:12.516Z,1006.29
2023-02-01T11:18:13.193Z,1006.27
2023-02-01T11:19:12.507Z,1006.3
2023-02-01T11:20:12.526Z,1006.27
2023-02-01T11:21:12.522Z,1006.24
2023-02-01T11:22:12.504Z,1006.23
2023-02-01T11:23:12.531Z,1006.22
2023-02-01T11:24:12.519Z,1006.25
2023-02-01T11:25:12.511Z,1006.25
2023-02-01T11:26:12.577Z,1006.12
2023-02-01T11:27:27.040Z,1006.14
2023-02-01T11:28:12.655Z,1006.06
2023-02-01T11:29:12.517Z,1006.14
2023-02-01T11:30:12.504Z,1006.05
2023-02-01T11:31:12.594Z,1006.11
2023-02-01T11:32:12.512Z,1006.05
2023-02-01T11:33:12.506Z,1006.08
2023-02-01T11:34:12.527Z,1006.03
2023-02-01T11:35:12.509Z,1006.02
2023-02-01T11:36:12.517Z,1005.95
2023-02-01T11:37:12.510Z,1005.9
2023-02-01T11:38:12.513Z,1005.91
2023-02-01T11:39:12.516Z,1005.83
2023-02-01T11:40:12.523Z,1005.84
2023-02-01T11:41:12.600Z,1005.72
2023-02-01T11:42:12.575Z,1005.85
2023-02-01T11:43:12.518Z,1005.77
2023-02-01T11:44:12.537Z,1005.77
2023-02-01T11:45:12.510Z,1005.77
2023-02-01T11:46:12.511Z,1005.65
2023-02-01T11:47:12.515Z,1005.71
2023-02-01T11:48:26.632Z,1005.68
2023-02-01T11:49:12.507Z,1005.69
2023-02-01T11:50:12.516Z,1005.67
2023-02-01T11:51:12.512Z,1005.64
2023-02-01T11:52:12.517Z,1005.67
2023-02-01T11:53:12.510Z,1005.57
2023-02-01T11:54:12.642Z,1005.62
2023-02-01T11:55:12.549Z,1005.63
2023-02-01T11:56:12.512Z,1005.57
2023-02-01T11:57:12.511Z,1005.46
2023-02-01T11:58:12.505Z,1005.46
2023-02-01T11:59:12.517Z,1005.46
2023-02-01T12:00:12.521Z,1005.42
2023-02-01T12:01:12.509Z,1005.37
2023-02-01T12:02:12.582Z,1005.44
2023-02-01T12:03:12.553Z,1005.42
2023-02-01T12:04:12.507Z,1005.36
2023-02-01T12:05:12.507Z,1005.43
2023-02-01T12:06:12.514Z,1005.32
2023-02-01T12:07:12.538Z,1005.27
2023-02-01T12:08:12.518Z,1005.27
2023-02-01T12:09:12.515Z,1005.29
2023-02-01T12:10:12.506Z,1005.28
2023-02-01T12:11:12.574Z,1005.2
2023-02-01T12:12:12.503Z,1005.15
2023-02-01T12:13:12.522Z,1005.26
2023-02-01T12:14:12.591Z,1005.23
2023-02-01T12:15:12.520Z,1005.23